createdAt,value
2018-04-02T00:02:02.111Z,36.03
2018-04-02T00:04:29.472Z,33.47
2018-04-02T00:06:56.853Z,34.73
2018-04-02T00:09:24.218Z,30.33
2018-04-02T00:11:51.610Z,34.43
2018-04-02T00:14:18.992Z,34.00
2018-04-02T00:16:46.374Z,38.57
2018-04-02T00:19:13.757Z,38.60
2018-04-02T00:21:41.129Z,35.80
2018-04-02T00:24:08.484Z,39.83
2018-04-02T00:26:35.920Z,32.23
2018-04-02T00:29:03.354Z,36.00
2018-04-02T00:31:30.708Z,35.53
2018-04-02T00:33:58.093Z,34.27
2018-04-02T00:36:25.497Z,34.27
2018-04-02T00:38:52.906Z,39.70
2018-04-02T00:41:20.272Z,44.00
2018-04-02T00:43:47.629Z,35.97
2018-04-02T00:46:15.018Z,41.17
2018-04-02T00:48:42.395Z,41.30
2018-04-02T00:51:09.791Z,42.77
2018-04-02T00:53:37.150Z,38.10
2018-04-02T00:56:04.506Z,43.20
2018-04-02T00:58:31.915Z,53.47
2018-04-02T01:00:59.278Z,43.30
2018-04-02T01:03:26.632Z,47.63
2018-04-02T01:05:54.058Z,52.57
2018-04-02T01:08:21.413Z,45.60
2018-04-02T01:10:48.778Z,42.00
2018-04-02T01:13:16.174Z,49.13
2018-04-02T01:15:43.524Z,35.53
2018-04-02T01:18:10.888Z,46.53
2018-04-02T01:20:38.294Z,45.10
2018-04-02T01:23:05.701Z,44.43
2018-04-02T01:25:33.076Z,39.10
2018-04-02T01:28:00.492Z,47.23
2018-04-02T01:30:27.858Z,38.97
2018-04-02T01:32:55.216Z,43.07
2018-04-02T01:35:22.603Z,43.27
2018-04-02T01:37:49.992Z,49.20
2018-04-02T01:40:17.350Z,44.30
2018-04-02T01:42:44.705Z,44.50
2018-04-02T01:45:12.101Z,35.63
2018-04-02T01:47:39.514Z,44.50
2018-04-02T01:50:06.930Z,35.07
2018-04-02T01:52:34.304Z,46.50
2018-04-02T01:55:01.693Z,36.33
2018-04-02T01:57:29.071Z,44.33
2018-04-02T01:59:56.565Z,42.30
2018-04-02T02:02:23.972Z,41.17
2018-04-02T02:04:51.334Z,43.77
2018-04-02T02:07:18.742Z,41.93
2018-04-02T02:09:46.145Z,38.13
2018-04-02T02:12:13.503Z,44.90
2018-04-02T02:14:40.861Z,46.50
2018-04-02T02:17:08.342Z,47.53
2018-04-02T02:19:35.701Z,46.83
2018-04-02T02:22:03.058Z,50.07
2018-04-02T02:24:30.447Z,47.47
2018-04-02T02:26:57.841Z,47.50
2018-04-02T02:29:25.192Z,47.33
2018-04-02T02:31:52.562Z,45.90
2018-04-02T02:34:19.946Z,49.73
2018-04-02T02:36:47.298Z,54.33
2018-04-02T02:39:14.659Z,50.00
2018-04-02T02:41:42.080Z,52.63
2018-04-02T02:44:09.458Z,50.17
2018-04-02T02:46:36.809Z,44.77
2018-04-02T02:49:04.315Z,51.83
2018-04-02T02:51:31.673Z,55.07
2018-04-02T02:53:59.057Z,50.07
2018-04-02T02:56:26.417Z,60.50
2018-04-02T02:58:53.776Z,63.53
2018-04-02T03:01:21.265Z,59.47
2018-04-02T03:03:48.632Z,50.03
2018-04-02T03:06:15.996Z,56.00
2018-04-02T03:08:43.406Z,56.13
2018-04-02T03:11:10.766Z,55.83
2018-04-02T03:13:38.134Z,55.60
2018-04-02T03:16:05.537Z,54.10
2018-04-02T03:18:32.899Z,56.27
2018-04-02T03:21:00.257Z,53.17
2018-04-02T03:23:27.658Z,62.13
2018-04-02T03:25:55.030Z,47.33
2018-04-02T03:28:22.385Z,63.37
2018-04-02T03:30:49.786Z,49.13
2018-04-02T03:33:17.186Z,58.40
2018-04-02T03:35:44.583Z,62.50
2018-04-02T03:38:11.939Z,72.73
2018-04-02T03:40:39.349Z,59.73
2018-04-02T03:43:06.737Z,56.37
2018-04-02T03:45:34.094Z,72.50
2018-04-02T03:48:01.460Z,62.67
2018-04-02T03:50:28.871Z,66.07
2018-04-02T03:52:56.257Z,65.53
2018-04-02T03:55:23.630Z,64.40
2018-04-02T03:57:51.026Z,70.60
2018-04-02T04:00:18.550Z,62.70
2018-04-02T04:02:46.001Z,74.13
2018-04-02T04:05:13.361Z,66.73
2018-04-02T04:07:40.922Z,61.13
2018-04-02T04:10:08.274Z,71.53
2018-04-02T04:12:35.633Z,71.87
2018-04-02T04:15:03.020Z,71.33
2018-04-02T04:17:30.377Z,66.03
2018-04-02T04:19:57.780Z,66.77
2018-04-02T04:22:25.133Z,66.27
2018-04-02T04:24:52.484Z,66.70
2018-04-02T04:27:19.861Z,61.70
2018-04-02T04:29:47.220Z,65.80
2018-04-02T04:32:15.417Z,72.70
2018-04-02T04:34:42.769Z,70.57
2018-04-02T04:37:10.161Z,74.03
2018-04-02T04:39:37.569Z,82.03
2018-04-02T04:42:04.966Z,72.73
2018-04-02T04:44:32.319Z,68.37
2018-04-02T04:46:59.721Z,67.40
2018-04-02T04:49:27.081Z,63.60
2018-04-02T04:51:54.446Z,67.60
2018-04-02T04:54:21.837Z,68.77
2018-04-02T04:56:49.205Z,68.40
2018-04-02T04:59:16.560Z,68.77
2018-04-02T05:01:43.951Z,67.20
2018-04-02T05:04:11.306Z,66.27
2018-04-02T05:06:38.706Z,70.37
2018-04-02T05:09:06.060Z,70.90
2018-04-02T05:11:33.418Z,67.50
2018-04-02T05:14:00.805Z,68.17
2018-04-02T05:16:28.173Z,61.60
2018-04-02T05:18:55.526Z,78.97
2018-04-02T05:21:22.917Z,68.43
2018-04-02T05:23:50.275Z,64.10
2018-04-02T05:26:17.654Z,69.83
2018-04-02T05:28:45.045Z,75.20
2018-04-02T05:31:12.397Z,65.67
2018-04-02T05:33:39.791Z,56.27
2018-04-02T05:36:07.149Z,63.43
2018-04-02T05:38:34.513Z,59.93
2018-04-02T05:41:01.915Z,66.30
2018-04-02T05:43:29.276Z,62.60
2018-04-02T05:45:56.673Z,54.67
2018-04-02T05:48:24.029Z,60.00
2018-04-02T05:50:51.393Z,58.37
2018-04-02T05:53:18.834Z,57.23
2018-04-02T05:55:46.214Z,65.60
2018-04-02T05:58:13.615Z,55.80
2018-04-02T06:00:41.020Z,69.20
2018-04-02T06:03:08.430Z,61.33
2018-04-02T06:05:35.785Z,58.47
2018-04-02T06:08:03.191Z,53.63
2018-04-02T06:10:30.630Z,59.43
2018-04-02T06:12:58.012Z,63.37
2018-04-02T06:15:25.370Z,56.80
2018-04-02T06:17:52.752Z,57.70
2018-04-02T06:20:20.150Z,55.30
2018-04-02T06:22:47.509Z,52.70
2018-04-02T06:25:14.889Z,50.90
2018-04-02T06:27:42.320Z,63.77
2018-04-02T06:30:09.694Z,52.50
2018-04-02T06:32:37.058Z,57.43
2018-04-02T06:35:04.458Z,50.00
2018-04-02T06:37:31.809Z,56.43
2018-04-02T06:39:59.177Z,49.90
2018-04-02T06:42:26.566Z,45.30
2018-04-02T06:44:53.926Z,47.40
2018-04-02T06:47:21.341Z,49.90
2018-04-02T06:49:48.725Z,49.83
2018-04-02T06:52:16.133Z,50.37
2018-04-02T06:54:43.540Z,47.40
2018-04-02T06:57:10.898Z,51.93
2018-04-02T06:59:38.257Z,44.73
2018-04-02T07:02:05.674Z,49.53
2018-04-02T07:04:33.084Z,43.83
2018-04-02T07:07:00.418Z,50.57
2018-04-02T07:09:27.798Z,48.43
2018-04-02T07:11:55.158Z,50.77
2018-04-02T07:14:22.558Z,47.13
2018-04-02T07:16:49.910Z,47.40
2018-04-02T07:19:17.269Z,46.43
2018-04-02T07:21:44.729Z,52.80
2018-04-02T07:24:12.085Z,53.20
2018-04-02T07:26:39.441Z,49.53
2018-04-02T07:29:06.849Z,48.50
2018-04-02T07:31:34.220Z,41.97
2018-04-02T07:34:01.582Z,39.43
2018-04-02T07:36:28.964Z,55.27
2018-04-02T07:38:56.321Z,45.90
2018-04-02T07:41:23.755Z,53.37
2018-04-02T07:43:51.110Z,49.50
2018-04-02T07:46:18.478Z,45.10
2018-04-02T07:48:45.881Z,42.77
2018-04-02T07:51:13.246Z,41.97
2018-04-02T07:53:40.612Z,44.20
2018-04-02T07:56:08.021Z,43.57
2018-04-02T07:58:35.559Z,43.07
2018-04-02T08:01:02.933Z,49.27
2018-04-02T08:03:30.294Z,42.80
2018-04-02T08:05:57.685Z,38.33
2018-04-02T08:08:25.058Z,39.50
2018-04-02T08:10:52.427Z,36.80
2018-04-02T08:13:19.812Z,39.07
2018-04-02T08:15:47.277Z,33.80
2018-04-02T08:18:14.663Z,40.80
2018-04-02T08:20:42.027Z,32.70
2018-04-02T08:23:09.437Z,35.33
2018-04-02T08:25:36.801Z,40.27
2018-04-02T08:28:04.153Z,32.27
2018-04-02T08:30:31.545Z,34.17
2018-04-02T08:32:58.903Z,32.50
2018-04-02T08:35:26.478Z,31.27
2018-04-02T08:37:53.849Z,31.27
2018-04-02T08:40:21.217Z,34.90
2018-04-02T08:42:48.617Z,32.67
2018-04-02T08:45:15.976Z,29.23
2018-04-02T08:47:43.332Z,29.27
2018-04-02T08:50:10.756Z,27.20
2018-04-02T08:52:38.169Z,28.50
2018-04-02T08:55:05.535Z,31.80
2018-04-02T08:57:32.907Z,31.13
2018-04-02T09:00:00.313Z,22.37
2018-04-02T09:02:27.674Z,25.23
2018-04-02T09:04:55.050Z,23.23
2018-04-02T09:07:22.453Z,25.07
2018-04-02T09:09:53.413Z,26.60
2018-04-02T09:12:20.836Z,31.00
2018-04-02T09:14:48.201Z,26.20
2018-04-02T09:17:15.593Z,27.37
2018-04-02T09:19:42.973Z,26.73
2018-04-02T09:22:10.341Z,24.50
2018-04-02T09:24:37.737Z,25.10
2018-04-02T09:27:05.096Z,26.03
2018-04-02T09:29:33.379Z,26.03
2018-04-02T09:32:00.774Z,24.13
2018-04-02T09:34:28.132Z,27.73
2018-04-02T09:36:55.500Z,22.33
2018-04-02T09:39:22.879Z,20.80
2018-04-02T09:41:50.238Z,23.83
2018-04-02T09:44:17.653Z,18.10
2018-04-02T09:46:45.942Z,19.07
2018-04-02T09:49:13.293Z,19.20
2018-04-02T09:51:40.776Z,17.60
2018-04-02T09:54:08.150Z,19.83
2018-04-02T09:56:35.545Z,17.57
2018-04-02T09:59:02.949Z,18.40
2018-04-02T10:01:30.374Z,18.20
2018-04-02T10:03:58.310Z,16.63
2018-04-02T10:06:25.797Z,16.17
2018-04-02T10:08:53.200Z,16.27
2018-04-02T10:11:20.550Z,14.87
2018-04-02T10:13:47.947Z,15.50
2018-04-02T10:16:15.342Z,14.27
2018-04-02T10:18:42.693Z,18.50
2018-04-02T10:21:10.121Z,14.00
2018-04-02T10:23:37.470Z,11.20
2018-04-02T10:26:04.827Z,10.60
2018-04-02T10:28:32.237Z,13.10
2018-04-02T10:30:59.585Z,11.77
2018-04-02T10:33:26.932Z,10.63
2018-04-02T10:35:54.314Z,12.40
2018-04-02T10:38:21.666Z,16.03
2018-04-02T10:40:49.070Z,16.47
2018-04-02T10:43:16.454Z,13.83
2018-04-02T10:45:44.312Z,12.60
2018-04-02T10:48:11.692Z,10.40
2018-04-02T10:50:39.055Z,12.20
2018-04-02T10:53:06.418Z,11.93
2018-04-02T10:55:33.789Z,15.37
2018-04-02T10:58:01.138Z,13.90
2018-04-02T11:00:28.520Z,13.07
2018-04-02T11:02:55.878Z,13.27
2018-04-02T11:05:23.292Z,15.07
2018-04-02T11:07:50.659Z,12.50
2018-04-02T11:10:18.010Z,11.33
2018-04-02T11:12:45.437Z,12.10
2018-04-02T11:15:12.783Z,12.73
2018-04-02T11:17:40.148Z,12.43
2018-04-02T11:20:07.559Z,14.23
2018-04-02T11:22:34.925Z,15.90
2018-04-02T11:25:02.309Z,14.20
2018-04-02T11:27:29.718Z,13.40
2018-04-02T11:29:57.074Z,11.70
2018-04-02T11:32:24.439Z,14.23
2018-04-02T11:34:51.829Z,13.83
2018-04-02T11:37:19.189Z,11.97
2018-04-02T11:39:46.588Z,13.33
2018-04-02T11:42:13.962Z,11.93
2018-04-02T11:44:41.325Z,13.40
2018-04-02T11:47:08.721Z,11.30
2018-04-02T11:49:36.075Z,13.83
2018-04-02T11:52:03.446Z,15.87
2018-04-02T11:54:30.817Z,14.50
2018-04-02T11:56:58.171Z,12.50
2018-04-02T11:59:25.584Z,12.20
2018-04-02T12:01:52.991Z,12.93
2018-04-02T12:04:20.341Z,14.40
2018-04-02T12:06:47.689Z,11.20
2018-04-02T12:09:15.079Z,9.90
2018-04-02T12:11:42.437Z,14.90
2018-04-02T12:14:09.861Z,14.80
2018-04-02T12:16:37.246Z,14.00
2018-04-02T12:19:04.598Z,15.23
2018-04-02T12:21:32.008Z,16.00
2018-04-02T12:23:59.386Z,13.90
2018-04-02T12:26:26.775Z,13.80
2018-04-02T12:28:54.187Z,14.30
2018-04-02T12:31:21.540Z,14.20
2018-04-02T12:33:48.947Z,11.70
2018-04-02T12:36:16.293Z,13.13
2018-04-02T12:38:43.637Z,12.83
2018-04-02T12:41:11.037Z,16.37
2018-04-02T12:43:38.443Z,16.23
2018-04-02T12:46:05.811Z,14.60
2018-04-02T12:48:33.264Z,15.30
2018-04-02T12:51:00.632Z,10.73
2018-04-02T12:53:27.987Z,14.90
2018-04-02T12:55:55.398Z,15.70
2018-04-02T12:58:22.780Z,13.30
2018-04-02T13:00:50.134Z,13.60
2018-04-02T13:03:17.484Z,14.57
2018-04-02T13:05:44.925Z,15.40
2018-04-02T13:08:12.297Z,15.50
2018-04-02T13:10:39.709Z,13.63
2018-04-02T13:13:07.072Z,13.70
2018-04-02T13:15:34.470Z,13.73
2018-04-02T13:18:01.865Z,17.55
2018-04-02T13:20:29.271Z,15.95
2018-04-02T13:22:56.634Z,16.90
2018-04-02T13:25:24.022Z,17.60
2018-04-02T13:27:51.409Z,14.50
2018-04-02T13:30:18.793Z,18.30
2018-04-02T13:32:46.158Z,14.47
2018-04-02T13:35:13.549Z,16.23
2018-04-02T13:37:40.907Z,16.57
2018-04-02T13:40:08.288Z,13.73
2018-04-02T13:42:35.668Z,16.47
2018-04-02T13:45:03.037Z,16.47
2018-04-02T13:47:30.546Z,14.87
2018-04-02T13:49:57.911Z,14.30
2018-04-02T13:52:25.277Z,16.63
2018-04-02T13:54:52.700Z,16.30
2018-04-02T13:57:20.110Z,20.47
2018-04-02T13:59:47.470Z,21.43
2018-04-02T14:02:14.873Z,20.83
2018-04-02T14:04:42.256Z,20.63
2018-04-02T14:07:10.123Z,18.83
2018-04-02T14:09:37.534Z,18.60
2018-04-02T14:12:04.889Z,19.43
2018-04-02T14:14:32.248Z,16.63
2018-04-02T14:16:59.661Z,16.55
2018-04-02T14:19:27.033Z,18.00
2018-04-02T14:21:54.456Z,17.60
2018-04-02T14:24:21.859Z,19.17
2018-04-02T14:26:49.224Z,19.20
2018-04-02T14:29:16.585Z,19.43
2018-04-02T14:31:43.980Z,22.33
2018-04-02T14:34:11.337Z,20.73
2018-04-02T14:36:38.737Z,21.60
2018-04-02T14:39:06.117Z,20.67
2018-04-02T14:41:33.503Z,20.43
2018-04-02T14:44:00.923Z,20.30
2018-04-02T14:46:28.309Z,18.43
2018-04-02T14:48:55.717Z,21.17
2018-04-02T14:51:23.107Z,22.33
2018-04-02T14:53:50.486Z,23.33
2018-04-02T14:56:17.930Z,23.10
2018-04-02T14:58:45.286Z,23.67
2018-04-02T15:01:12.644Z,22.40
2018-04-02T15:03:40.081Z,29.23
2018-04-02T15:06:07.525Z,26.33
2018-04-02T15:08:34.949Z,24.57
2018-04-02T15:11:02.351Z,25.93
2018-04-02T15:13:29.726Z,24.60
2018-04-02T15:15:57.118Z,26.73
2018-04-02T15:18:24.521Z,25.13
2018-04-02T15:20:51.889Z,26.77
2018-04-02T15:23:19.245Z,30.47
2018-04-02T15:25:47.611Z,28.67
2018-04-02T15:28:14.979Z,31.57
2018-04-02T15:30:42.338Z,29.90
2018-04-02T15:33:09.742Z,30.67
2018-04-02T15:35:37.093Z,31.73
2018-04-02T15:38:04.446Z,33.20
2018-04-02T15:40:34.974Z,29.70
2018-04-02T15:43:02.338Z,36.80
2018-04-02T15:45:29.737Z,30.20
2018-04-02T15:47:57.140Z,33.83
2018-04-02T15:50:24.496Z,35.23
2018-04-02T15:52:51.858Z,35.87
2018-04-02T15:55:19.358Z,33.50
2018-04-02T15:57:46.716Z,34.03
2018-04-02T16:00:14.130Z,32.13
2018-04-02T16:02:41.492Z,34.20
2018-04-02T16:05:08.851Z,33.90
2018-04-02T16:07:36.264Z,34.17
2018-04-02T16:10:03.626Z,34.37
2018-04-02T16:12:30.981Z,37.07
2018-04-02T16:14:58.405Z,37.10
2018-04-02T16:17:25.777Z,42.03
2018-04-02T16:19:53.173Z,40.67
2018-04-02T16:22:20.553Z,39.20
2018-04-02T16:24:47.930Z,37.33
2018-04-02T16:27:15.354Z,41.73
2018-04-02T16:29:42.733Z,40.43
2018-04-02T16:32:10.090Z,44.77
2018-04-02T16:34:37.506Z,47.10
2018-04-02T16:37:04.893Z,64.87
2018-04-02T16:39:32.261Z,45.60
2018-04-02T16:41:59.661Z,42.87
2018-04-02T16:44:27.026Z,49.53
2018-04-02T16:46:54.398Z,43.10
2018-04-02T16:49:21.817Z,42.70
2018-04-02T16:51:49.195Z,42.87
2018-04-02T16:54:16.608Z,45.90
2018-04-02T16:56:43.990Z,51.37
2018-04-02T16:59:11.393Z,54.53
2018-04-02T17:01:38.796Z,49.93
2018-04-02T17:04:06.153Z,48.70
2018-04-02T17:06:33.537Z,44.57
2018-04-02T17:09:01.649Z,48.73
2018-04-02T17:11:29.026Z,50.63
2018-04-02T17:13:56.528Z,48.93
2018-04-02T17:16:23.885Z,51.03
2018-04-02T17:18:51.263Z,59.67
2018-04-02T17:21:18.661Z,54.77
2018-04-02T17:23:46.038Z,48.47
2018-04-02T17:26:13.394Z,48.20
2018-04-02T17:28:40.812Z,45.53
2018-04-02T17:31:08.189Z,46.90
2018-04-02T17:33:35.566Z,49.70
2018-04-02T17:36:02.962Z,48.53
2018-04-02T17:38:30.340Z,52.20
2018-04-02T17:40:57.745Z,58.07
2018-04-02T17:43:25.102Z,59.30
2018-04-02T17:45:52.469Z,51.30
2018-04-02T17:48:19.845Z,52.70
2018-04-02T17:50:47.252Z,55.77
2018-04-02T17:53:14.605Z,50.43
2018-04-02T17:55:42.016Z,57.50
2018-04-02T17:58:09.402Z,59.43
2018-04-02T18:00:36.756Z,52.87
2018-04-02T18:03:04.109Z,45.07
2018-04-02T18:05:31.514Z,53.83
2018-04-02T18:07:58.877Z,50.30
2018-04-02T18:10:29.647Z,47.87
2018-04-02T18:12:57.010Z,48.30
2018-04-02T18:15:24.406Z,47.47
2018-04-02T18:17:51.774Z,49.30
2018-04-02T18:20:19.125Z,52.63
2018-04-02T18:22:46.501Z,54.77
2018-04-02T18:25:13.856Z,57.40
2018-04-02T18:27:41.245Z,56.63
2018-04-02T18:30:08.599Z,60.80
2018-04-02T18:32:35.965Z,58.60
2018-04-02T18:35:03.370Z,58.57
2018-04-02T18:37:30.756Z,62.73
2018-04-02T18:39:58.129Z,54.77
2018-04-02T18:42:25.537Z,57.63
2018-04-02T18:44:52.921Z,64.53
2018-04-02T18:47:20.286Z,59.83
2018-04-02T18:49:47.691Z,58.50
2018-04-02T18:52:15.063Z,54.20
2018-04-02T18:54:42.446Z,51.40
2018-04-02T18:57:09.850Z,50.83
2018-04-02T18:59:37.219Z,59.90
2018-04-02T19:02:04.620Z,57.47
2018-04-02T19:04:32.030Z,51.13
2018-04-02T19:06:59.389Z,53.33
2018-04-02T19:09:26.770Z,56.37
2018-04-02T19:11:54.157Z,53.43
2018-04-02T19:14:21.592Z,52.70
2018-04-02T19:16:49.003Z,47.83
2018-04-02T19:19:16.378Z,48.77
2018-04-02T19:21:43.823Z,52.17
2018-04-02T19:24:11.191Z,48.90
2018-04-02T19:26:38.557Z,48.10
2018-04-02T19:29:05.947Z,48.87
2018-04-02T19:31:33.391Z,51.23
2018-04-02T19:34:00.763Z,49.30
2018-04-02T19:36:28.143Z,51.10
2018-04-02T19:38:55.551Z,47.30
2018-04-02T19:41:22.922Z,54.07
2018-04-02T19:43:50.285Z,56.47
2018-04-02T19:46:17.691Z,49.83
2018-04-02T19:48:45.067Z,54.23
2018-04-02T19:51:12.440Z,48.50
2018-04-02T19:53:39.927Z,47.27
2018-04-02T19:56:07.407Z,45.63
2018-04-02T19:58:34.779Z,52.67
2018-04-02T20:01:02.183Z,51.17
2018-04-02T20:03:29.546Z,54.77
2018-04-02T20:05:56.909Z,54.97
2018-04-02T20:08:24.299Z,51.90
2018-04-02T20:10:51.715Z,53.13
2018-04-02T20:13:19.113Z,59.57
2018-04-02T20:15:46.474Z,57.40
2018-04-02T20:18:13.908Z,57.80
2018-04-02T20:20:41.274Z,53.40
2018-04-02T20:23:08.682Z,54.27
2018-04-02T20:25:36.087Z,49.20
2018-04-02T20:28:03.506Z,51.50
2018-04-02T20:30:30.874Z,49.03
2018-04-02T20:32:59.188Z,49.53
2018-04-02T20:35:26.600Z,46.43
2018-04-02T20:37:53.986Z,43.67
2018-04-02T20:40:21.378Z,43.87
2018-04-02T20:42:48.729Z,43.40
2018-04-02T20:45:16.093Z,42.43
2018-04-02T20:47:43.513Z,46.03
2018-04-02T20:50:10.869Z,40.87
2018-04-02T20:52:38.256Z,46.50
2018-04-02T20:55:05.663Z,42.90
2018-04-02T20:57:33.093Z,40.93
2018-04-02T21:00:00.565Z,44.80
2018-04-02T21:02:27.966Z,43.17
2018-04-02T21:04:55.348Z,39.23
2018-04-02T21:07:22.708Z,44.90
2018-04-02T21:09:50.113Z,44.00
2018-04-02T21:12:20.465Z,41.73
2018-04-02T21:14:47.827Z,44.50
2018-04-02T21:17:15.209Z,41.90
2018-04-02T21:19:42.617Z,44.50
2018-04-02T21:22:10.001Z,39.73
2018-04-02T21:24:37.393Z,45.17
2018-04-02T21:27:04.753Z,41.57
2018-04-02T21:29:32.123Z,45.03
2018-04-02T21:31:59.657Z,43.10
2018-04-02T21:34:27.018Z,47.30
2018-04-02T21:36:54.374Z,46.00
2018-04-02T21:39:21.757Z,55.93
2018-04-02T21:41:49.174Z,45.73
2018-04-02T21:44:16.547Z,45.67
2018-04-02T21:46:43.988Z,46.77
2018-04-02T21:49:11.382Z,53.47
2018-04-02T21:51:38.766Z,43.83
2018-04-02T21:54:06.144Z,43.87
2018-04-02T21:56:33.553Z,45.53
2018-04-02T21:59:00.981Z,48.10
2018-04-02T22:01:28.345Z,45.13
2018-04-02T22:03:55.706Z,45.17
2018-04-02T22:06:28.977Z,43.90
2018-04-02T22:08:56.340Z,43.10
2018-04-02T22:11:23.736Z,42.03
2018-04-02T22:13:51.114Z,44.10
2018-04-02T22:16:18.473Z,44.47
2018-04-02T22:18:45.877Z,42.43
2018-04-02T22:21:13.242Z,45.83
2018-04-02T22:23:40.610Z,44.17
2018-04-02T22:26:07.994Z,45.13
2018-04-02T22:28:35.393Z,42.40
2018-04-02T22:31:02.812Z,40.47
2018-04-02T22:33:30.194Z,45.03
2018-04-02T22:35:57.558Z,41.63
2018-04-02T22:38:24.933Z,44.53
2018-04-02T22:40:52.293Z,41.70
2018-04-02T22:43:20.054Z,43.80
2018-04-02T22:45:47.406Z,41.10
2018-04-02T22:48:14.772Z,41.50
2018-04-02T22:50:42.181Z,44.67
2018-04-02T22:53:09.550Z,46.47
2018-04-02T22:55:36.906Z,46.10
2018-04-02T22:58:04.290Z,40.87
2018-04-02T23:00:31.853Z,44.20
2018-04-02T23:02:59.221Z,43.03
2018-04-02T23:05:26.574Z,41.90
2018-04-02T23:07:53.968Z,44.40
2018-04-02T23:10:21.328Z,40.97
2018-04-02T23:12:48.696Z,40.77
2018-04-02T23:15:16.102Z,38.70
2018-04-02T23:17:43.465Z,38.67
2018-04-02T23:20:10.836Z,43.73
2018-04-02T23:22:44.054Z,36.33
2018-04-02T23:25:11.409Z,41.40
2018-04-02T23:27:38.765Z,41.23
2018-04-02T23:30:06.202Z,40.20
2018-04-02T23:32:33.565Z,42.60
2018-04-02T23:35:00.924Z,40.40
2018-04-02T23:37:28.326Z,39.47
2018-04-02T23:39:55.681Z,43.10
2018-04-02T23:42:23.055Z,41.40
2018-04-02T23:44:50.466Z,42.47
2018-04-02T23:47:17.866Z,41.17
2018-04-02T23:49:45.217Z,37.40
2018-04-02T23:52:12.613Z,39.60
2018-04-02T23:54:39.982Z,37.87
2018-04-02T23:57:07.343Z,38.67
2018-04-02T23:59:34.756Z,38.07
